Direito Ao Destino — CUOC — position and weather

sailwx.info

Track history (hours):
 
Tides and Currents Weather Stations Pressure Air Temp Water Temp Dewpoint Dewpoint Depression Visibility Wind Speed Wind Dir Waves Ship Positions

Direito Ao Destino

Last reported at 2018-May-17 03:53 UTC. Time now 2018-May-21 09:08 UTC.
Position N 38°16' W 009°17'.

Length 16 m.

Type: Fishing. MMSI: 263412560.

Date/timePositionNaut miles runAvg speedWind from/ knotsBaromVisibWave heightAir tempDewpointWater temp
2018-May-17 03:53N 38°16' W 009°17'0 0.4
2018-May-17 03:30N 38°16' W 009°16'0 0.4
2018-May-17 02:58N 38°16' W 009°16'0 0.8
2018-May-17 02:29N 38°16' W 009°16'0 0.9
2018-May-17 02:00N 38°16' W 009°15'1 1.0
2018-May-17 01:29N 38°16' W 009°14'1 1.0
2018-May-17 00:58N 38°16' W 009°14'0 0.9
2018-May-17 00:30N 38°16' W 009°13'1 1.0
2018-May-16 23:59N 38°16' W 009°13'0 0.9
2018-May-16 23:30N 38°16' W 009°12'0 0.6
2018-May-16 23:00N 38°16' W 009°12'1 1.3
2018-May-16 22:30N 38°16' W 009°12'5 5.9
2018-May-16 21:37N 38°20' W 009°17'1 6.1
2018-May-16 21:28N 38°20' W 009°18'1 0.3
2018-May-16 18:04N 38°19' W 009°17'0 0.9
2018-May-16 17:50N 38°19' W 009°17'0 0.7
2018-May-16 17:29N 38°20' W 009°17'0 0.6
2018-May-16 17:00N 38°20' W 009°17'0 0.7
2018-May-16 16:29N 38°20' W 009°17'2 1.1
2018-May-16 15:04N 38°22' W 009°16'1 8.5
2018-May-16 14:53N 38°23' W 009°15'5 8.6
2018-May-16 14:15N 38°25' W 009°09'2 8.2
2018-May-16 13:59N 38°26' W 009°06'0 0.0
2018-May-15 07:50N 38°26' W 009°07'  
2018-May-08 05:32N 38°16' W 009°18'0 1.0
2018-May-08 05:30N 38°16' W 009°18'5 0.9
2018-May-08 00:19N 38°16' W 009°12'0 0.5
2018-May-07 23:53N 38°16' W 009°12'4 4.8
2018-May-07 23:07N 38°19' W 009°16'1 4.2
2018-May-07 22:49N 38°20' W 009°17'1 0.4
2018-May-07 20:52N 38°19' W 009°16'0 0.9
2018-May-07 20:25N 38°19' W 009°17'0 1.0
2018-May-07 19:57N 38°20' W 009°17'0 0.8
2018-May-07 19:30N 38°20' W 009°18'0 0.7
2018-May-07 18:58N 38°20' W 009°18'0 0.6
2018-May-07 18:29N 38°20' W 009°18'0 0.6
2018-May-07 18:00N 38°21' W 009°18'0 0.5
2018-May-07 17:09N 38°21' W 009°18'0 0.4
2018-May-07 16:50N 38°21' W 009°18'1 1.7
2018-May-07 16:30N 38°22' W 009°18'4 7.8
2018-May-07 16:00N 38°23' W 009°13'4 8.5
2018-May-07 15:30N 38°25' W 009°08'2 3.1
2018-May-07 15:00N 38°26' W 009°07'0 0.0
2018-May-07 14:30N 38°26' W 009°07'0 0.0
2018-May-07 14:00N 38°26' W 009°07'  
Track history (hours):
 
Tides and Currents Weather Stations Pressure Air Temp Water Temp Dewpoint Dewpoint Depression Visibility Wind Speed Wind Dir Waves Ship Positions

Direito Ao Destino

Last reported at 2018-May-17 03:53 UTC. Time now 2018-May-21 09:08 UTC.
Position N 38°16' W 009°17'.

Length 16 m.

Type: Fishing. MMSI: 263412560.

Date/timePositionNaut miles runAvg speedWind from/ knotsBaromVisibWave heightAir tempDewpointWater temp
2018-May-17 03:53N 38°16' W 009°17'0 0.4
2018-May-17 03:30N 38°16' W 009°16'0 0.4
2018-May-17 02:58N 38°16' W 009°16'0 0.8
2018-May-17 02:29N 38°16' W 009°16'0 0.9
2018-May-17 02:00N 38°16' W 009°15'1 1.0
2018-May-17 01:29N 38°16' W 009°14'1 1.0
2018-May-17 00:58N 38°16' W 009°14'0 0.9
2018-May-17 00:30N 38°16' W 009°13'1 1.0
2018-May-16 23:59N 38°16' W 009°13'0 0.9
2018-May-16 23:30N 38°16' W 009°12'0 0.6
2018-May-16 23:00N 38°16' W 009°12'1 1.3
2018-May-16 22:30N 38°16' W 009°12'5 5.9
2018-May-16 21:37N 38°20' W 009°17'1 6.1
2018-May-16 21:28N 38°20' W 009°18'1 0.3
2018-May-16 18:04N 38°19' W 009°17'0 0.9
2018-May-16 17:50N 38°19' W 009°17'0 0.7
2018-May-16 17:29N 38°20' W 009°17'0 0.6
2018-May-16 17:00N 38°20' W 009°17'0 0.7
2018-May-16 16:29N 38°20' W 009°17'2 1.1
2018-May-16 15:04N 38°22' W 009°16'1 8.5
2018-May-16 14:53N 38°23' W 009°15'5 8.6
2018-May-16 14:15N 38°25' W 009°09'2 8.2
2018-May-16 13:59N 38°26' W 009°06'0 0.0
2018-May-15 07:50N 38°26' W 009°07'  
2018-May-08 05:32N 38°16' W 009°18'0 1.0
2018-May-08 05:30N 38°16' W 009°18'5 0.9
2018-May-08 00:19N 38°16' W 009°12'0 0.5
2018-May-07 23:53N 38°16' W 009°12'4 4.8
2018-May-07 23:07N 38°19' W 009°16'1 4.2
2018-May-07 22:49N 38°20' W 009°17'1 0.4
2018-May-07 20:52N 38°19' W 009°16'0 0.9
2018-May-07 20:25N 38°19' W 009°17'0 1.0
2018-May-07 19:57N 38°20' W 009°17'0 0.8
2018-May-07 19:30N 38°20' W 009°18'0 0.7
2018-May-07 18:58N 38°20' W 009°18'0 0.6
2018-May-07 18:29N 38°20' W 009°18'0 0.6
2018-May-07 18:00N 38°21' W 009°18'0 0.5
2018-May-07 17:09N 38°21' W 009°18'0 0.4
2018-May-07 16:50N 38°21' W 009°18'1 1.7
2018-May-07 16:30N 38°22' W 009°18'4 7.8
2018-May-07 16:00N 38°23' W 009°13'4 8.5
2018-May-07 15:30N 38°25' W 009°08'2 3.1
2018-May-07 15:00N 38°26' W 009°07'0 0.0
2018-May-07 14:30N 38°26' W 009°07'0 0.0
2018-May-07 14:00N 38°26' W 009°07'  

Dump ship's entire track history